sensor_id;sensor_type;location;lat;lon;timestamp;P1;durP1;ratioP1;P2;durP2;ratioP2
43823;SDS011;29470;53.550;9.926;2023-01-06T00:04:50;18.40;;;7.90;;
43823;SDS011;29470;53.550;9.926;2023-01-06T00:09:56;16.45;;;6.70;;
43823;SDS011;29470;53.550;9.926;2023-01-06T00:14:59;18.38;;;6.47;;
43823;SDS011;29470;53.550;9.926;2023-01-06T00:20:04;11.85;;;5.85;;
43823;SDS011;29470;53.550;9.926;2023-01-06T00:25:09;17.25;;;6.00;;
43823;SDS011;29470;53.550;9.926;2023-01-06T00:30:12;20.25;;;6.55;;
43823;SDS011;29470;53.550;9.926;2023-01-06T00:35:18;13.60;;;6.55;;
43823;SDS011;29470;53.550;9.926;2023-01-06T00:40:23;13.25;;;6.45;;
43823;SDS011;29470;53.550;9.926;2023-01-06T00:45:25;16.85;;;6.07;;
43823;SDS011;29470;53.550;9.926;2023-01-06T00:50:28;18.35;;;6.32;;
43823;SDS011;29470;53.550;9.926;2023-01-06T00:55:33;16.67;;;7.10;;
43823;SDS011;29470;53.550;9.926;2023-01-06T01:00:36;17.40;;;6.88;;
43823;SDS011;29470;53.550;9.926;2023-01-06T01:05:38;16.58;;;6.35;;
43823;SDS011;29470;53.550;9.926;2023-01-06T01:10:43;22.08;;;6.90;;
43823;SDS011;29470;53.550;9.926;2023-01-06T01:15:45;19.40;;;7.82;;
43823;SDS011;29470;53.550;9.926;2023-01-06T01:20:51;13.60;;;7.00;;
43823;SDS011;29470;53.550;9.926;2023-01-06T01:26:05;17.13;;;7.03;;
43823;SDS011;29470;53.550;9.926;2023-01-06T01:31:11;16.48;;;7.18;;
43823;SDS011;29470;53.550;9.926;2023-01-06T01:36:18;16.00;;;7.63;;
43823;SDS011;29470;53.550;9.926;2023-01-06T01:46:43;14.50;;;6.90;;
43823;SDS011;29470;53.550;9.926;2023-01-06T01:51:48;16.95;;;7.13;;
43823;SDS011;29470;53.550;9.926;2023-01-06T01:56:58;18.60;;;7.40;;
43823;SDS011;29470;53.550;9.926;2023-01-06T02:02:08;15.68;;;7.97;;
43823;SDS011;29470;53.550;9.926;2023-01-06T02:07:15;16.95;;;7.72;;
43823;SDS011;29470;53.550;9.926;2023-01-06T02:12:22;15.32;;;7.72;;
43823;SDS011;29470;53.550;9.926;2023-01-06T02:17:45;16.02;;;8.15;;
43823;SDS011;29470;53.550;9.926;2023-01-06T02:23:25;18.42;;;7.32;;
43823;SDS011;29470;53.550;9.926;2023-01-06T02:29:05;16.63;;;8.25;;
43823;SDS011;29470;53.550;9.926;2023-01-06T02:34:46;16.17;;;7.57;;
43823;SDS011;29470;53.550;9.926;2023-01-06T02:40:04;13.73;;;7.35;;
43823;SDS011;29470;53.550;9.926;2023-01-06T02:45:17;17.88;;;8.70;;
43823;SDS011;29470;53.550;9.926;2023-01-06T02:50:27;15.32;;;7.80;;
43823;SDS011;29470;53.550;9.926;2023-01-06T02:55:42;14.55;;;7.95;;
43823;SDS011;29470;53.550;9.926;2023-01-06T03:00:49;19.50;;;8.15;;
43823;SDS011;29470;53.550;9.926;2023-01-06T03:06:03;17.88;;;7.90;;
43823;SDS011;29470;53.550;9.926;2023-01-06T03:11:10;16.23;;;8.23;;
43823;SDS011;29470;53.550;9.926;2023-01-06T03:16:14;17.90;;;8.68;;
43823;SDS011;29470;53.550;9.926;2023-01-06T03:21:20;18.50;;;9.02;;
43823;SDS011;29470;53.550;9.926;2023-01-06T03:26:25;20.10;;;9.33;;
43823;SDS011;29470;53.550;9.926;2023-01-06T03:31:31;19.85;;;8.48;;
43823;SDS011;29470;53.550;9.926;2023-01-06T03:42:22;23.42;;;11.48;;
43823;SDS011;29470;53.550;9.926;2023-01-06T03:47:51;25.85;;;12.32;;
43823;SDS011;29470;53.550;9.926;2023-01-06T03:53:02;29.55;;;12.23;;
43823;SDS011;29470;53.550;9.926;2023-01-06T03:58:19;28.27;;;13.05;;
43823;SDS011;29470;53.550;9.926;2023-01-06T04:03:27;34.53;;;13.70;;
43823;SDS011;29470;53.550;9.926;2023-01-06T04:08:34;32.22;;;12.52;;
43823;SDS011;29470;53.550;9.926;2023-01-06T04:13:37;32.50;;;14.63;;
43823;SDS011;29470;53.550;9.926;2023-01-06T04:18:43;30.08;;;13.88;;
43823;SDS011;29470;53.550;9.926;2023-01-06T04:23:50;33.30;;;13.55;;
43823;SDS011;29470;53.550;9.926;2023-01-06T04:28:56;31.77;;;13.10;;
43823;SDS011;29470;53.550;9.926;2023-01-06T04:33:59;35.72;;;15.25;;
43823;SDS011;29470;53.550;9.926;2023-01-06T04:39:05;37.50;;;13.90;;
43823;SDS011;29470;53.550;9.926;2023-01-06T04:44:08;33.95;;;13.80;;
43823;SDS011;29470;53.550;9.926;2023-01-06T04:49:12;33.50;;;14.27;;
43823;SDS011;29470;53.550;9.926;2023-01-06T04:54:19;33.97;;;13.93;;
43823;SDS011;29470;53.550;9.926;2023-01-06T04:59:22;33.38;;;15.30;;
43823;SDS011;29470;53.550;9.926;2023-01-06T05:04:25;34.63;;;15.77;;
43823;SDS011;29470;53.550;9.926;2023-01-06T05:09:35;32.47;;;15.43;;
43823;SDS011;29470;53.550;9.926;2023-01-06T05:14:39;35.45;;;14.60;;
43823;SDS011;29470;53.550;9.926;2023-01-06T05:19:41;27.05;;;13.02;;
43823;SDS011;29470;53.550;9.926;2023-01-06T05:24:47;26.00;;;12.20;;
43823;SDS011;29470;53.550;9.926;2023-01-06T05:29:50;27.73;;;12.57;;
43823;SDS011;29470;53.550;9.926;2023-01-06T05:34:53;26.63;;;12.35;;
43823;SDS011;29470;53.550;9.926;2023-01-06T05:39:57;29.73;;;13.88;;
43823;SDS011;29470;53.550;9.926;2023-01-06T05:45:00;24.95;;;12.80;;
43823;SDS011;29470;53.550;9.926;2023-01-06T05:50:03;28.70;;;12.88;;
43823;SDS011;29470;53.550;9.926;2023-01-06T05:55:08;26.17;;;12.90;;
43823;SDS011;29470;53.550;9.926;2023-01-06T06:00:12;24.15;;;11.82;;
43823;SDS011;29470;53.550;9.926;2023-01-06T06:05:15;26.60;;;12.52;;
43823;SDS011;29470;53.550;9.926;2023-01-06T06:10:20;24.00;;;12.68;;
43823;SDS011;29470;53.550;9.926;2023-01-06T06:29:11;25.08;;;13.90;;
43823;SDS011;29470;53.550;9.926;2023-01-06T06:34:14;27.90;;;13.63;;
43823;SDS011;29470;53.550;9.926;2023-01-06T06:39:18;30.50;;;14.52;;
43823;SDS011;29470;53.550;9.926;2023-01-06T06:44:23;39.17;;;16.42;;
43823;SDS011;29470;53.550;9.926;2023-01-06T06:49:26;29.67;;;14.23;;
43823;SDS011;29470;53.550;9.926;2023-01-06T06:54:29;27.60;;;14.45;;
43823;SDS011;29470;53.550;9.926;2023-01-06T06:59:33;35.22;;;15.85;;
43823;SDS011;29470;53.550;9.926;2023-01-06T07:04:36;24.42;;;13.80;;
43823;SDS011;29470;53.550;9.926;2023-01-06T07:09:42;25.33;;;13.23;;
43823;SDS011;29470;53.550;9.926;2023-01-06T07:14:46;27.05;;;12.60;;
43823;SDS011;29470;53.550;9.926;2023-01-06T07:19:49;23.13;;;12.18;;
43823;SDS011;29470;53.550;9.926;2023-01-06T07:24:52;23.23;;;12.38;;
43823;SDS011;29470;53.550;9.926;2023-01-06T07:29:56;20.65;;;11.20;;
43823;SDS011;29470;53.550;9.926;2023-01-06T07:34:59;22.15;;;11.50;;
43823;SDS011;29470;53.550;9.926;2023-01-06T07:40:02;19.60;;;10.60;;
43823;SDS011;29470;53.550;9.926;2023-01-06T07:45:07;19.58;;;10.30;;
43823;SDS011;29470;53.550;9.926;2023-01-06T07:50:10;17.85;;;10.13;;
43823;SDS011;29470;53.550;9.926;2023-01-06T07:55:13;17.33;;;10.18;;
43823;SDS011;29470;53.550;9.926;2023-01-06T08:00:18;18.33;;;10.10;;
43823;SDS011;29470;53.550;9.926;2023-01-06T08:05:23;16.05;;;9.60;;
43823;SDS011;29470;53.550;9.926;2023-01-06T08:10:26;19.33;;;10.27;;
43823;SDS011;29470;53.550;9.926;2023-01-06T08:15:30;17.38;;;9.60;;
43823;SDS011;29470;53.550;9.926;2023-01-06T08:20:35;14.70;;;8.82;;
43823;SDS011;29470;53.550;9.926;2023-01-06T08:25:38;14.27;;;7.88;;
43823;SDS011;29470;53.550;9.926;2023-01-06T08:30:43;17.27;;;8.57;;
43823;SDS011;29470;53.550;9.926;2023-01-06T08:35:45;13.15;;;7.93;;
43823;SDS011;29470;53.550;9.926;2023-01-06T08:40:50;10.65;;;7.10;;
43823;SDS011;29470;53.550;9.926;2023-01-06T08:45:57;13.52;;;8.05;;
43823;SDS011;29470;53.550;9.926;2023-01-06T08:51:01;12.47;;;7.93;;
43823;SDS011;29470;53.550;9.926;2023-01-06T08:56:10;12.48;;;7.78;;
43823;SDS011;29470;53.550;9.926;2023-01-06T09:01:16;13.70;;;7.35;;
43823;SDS011;29470;53.550;9.926;2023-01-06T09:06:20;13.10;;;7.43;;
43823;SDS011;29470;53.550;9.926;2023-01-06T09:11:23;10.48;;;7.43;;
43823;SDS011;29470;53.550;9.926;2023-01-06T09:16:28;8.88;;;6.30;;
43823;SDS011;29470;53.550;9.926;2023-01-06T09:21:31;9.35;;;6.10;;
43823;SDS011;29470;53.550;9.926;2023-01-06T09:26:34;13.20;;;6.68;;
43823;SDS011;29470;53.550;9.926;2023-01-06T09:31:38;8.88;;;5.90;;
43823;SDS011;29470;53.550;9.926;2023-01-06T09:36:40;9.38;;;5.32;;
43823;SDS011;29470;53.550;9.926;2023-01-06T09:41:50;11.15;;;5.80;;
43823;SDS011;29470;53.550;9.926;2023-01-06T09:47:16;9.60;;;5.60;;
43823;SDS011;29470;53.550;9.926;2023-01-06T09:52:24;10.32;;;5.68;;
43823;SDS011;29470;53.550;9.926;2023-01-06T09:57:31;10.03;;;4.80;;
43823;SDS011;29470;53.550;9.926;2023-01-06T10:07:44;7.13;;;4.35;;
43823;SDS011;29470;53.550;9.926;2023-01-06T10:12:57;6.38;;;4.07;;
43823;SDS011;29470;53.550;9.926;2023-01-06T10:18:15;10.00;;;4.82;;
43823;SDS011;29470;53.550;9.926;2023-01-06T10:23:31;6.90;;;4.47;;
43823;SDS011;29470;53.550;9.926;2023-01-06T10:28:45;6.32;;;4.40;;
43823;SDS011;29470;53.550;9.926;2023-01-06T10:38:58;5.18;;;4.38;;
43823;SDS011;29470;53.550;9.926;2023-01-06T10:49:13;6.25;;;4.25;;
43823;SDS011;29470;53.550;9.926;2023-01-06T10:54:20;6.45;;;4.55;;
43823;SDS011;29470;53.550;9.926;2023-01-06T10:59:26;6.70;;;4.77;;
43823;SDS011;29470;53.550;9.926;2023-01-06T11:04:33;5.80;;;4.50;;
43823;SDS011;29470;53.550;9.926;2023-01-06T11:09:37;8.07;;;4.55;;
43823;SDS011;29470;53.550;9.926;2023-01-06T11:14:45;4.75;;;3.35;;
43823;SDS011;29470;53.550;9.926;2023-01-06T11:20:07;6.03;;;2.35;;
43823;SDS011;29470;53.550;9.926;2023-01-06T11:25:28;2.75;;;1.40;;
43823;SDS011;29470;53.550;9.926;2023-01-06T11:30:36;2.13;;;0.82;;
43823;SDS011;29470;53.550;9.926;2023-01-06T11:35:42;1.63;;;1.08;;
43823;SDS011;29470;53.550;9.926;2023-01-06T11:40:46;2.33;;;1.00;;
43823;SDS011;29470;53.550;9.926;2023-01-06T11:45:52;3.85;;;1.42;;
43823;SDS011;29470;53.550;9.926;2023-01-06T11:50:59;3.90;;;1.10;;
43823;SDS011;29470;53.550;9.926;2023-01-06T11:56:03;3.65;;;0.77;;
43823;SDS011;29470;53.550;9.926;2023-01-06T12:01:10;2.53;;;0.90;;
43823;SDS011;29470;53.550;9.926;2023-01-06T12:11:31;3.10;;;1.15;;
43823;SDS011;29470;53.550;9.926;2023-01-06T12:16:45;4.53;;;1.67;;
43823;SDS011;29470;53.550;9.926;2023-01-06T12:21:58;5.38;;;1.42;;
43823;SDS011;29470;53.550;9.926;2023-01-06T12:27:03;3.10;;;1.60;;
43823;SDS011;29470;53.550;9.926;2023-01-06T12:32:09;1.95;;;0.90;;
43823;SDS011;29470;53.550;9.926;2023-01-06T12:37:21;5.47;;;1.15;;
43823;SDS011;29470;53.550;9.926;2023-01-06T12:42:36;8.38;;;1.35;;
43823;SDS011;29470;53.550;9.926;2023-01-06T12:47:46;5.25;;;1.10;;
43823;SDS011;29470;53.550;9.926;2023-01-06T12:52:58;6.32;;;0.98;;
43823;SDS011;29470;53.550;9.926;2023-01-06T12:58:21;3.97;;;1.05;;
43823;SDS011;29470;53.550;9.926;2023-01-06T13:03:38;5.47;;;1.05;;
43823;SDS011;29470;53.550;9.926;2023-01-06T13:09:00;7.53;;;0.95;;
43823;SDS011;29470;53.550;9.926;2023-01-06T13:14:15;3.78;;;1.40;;
43823;SDS011;29470;53.550;9.926;2023-01-06T13:19:27;7.20;;;1.85;;
43823;SDS011;29470;53.550;9.926;2023-01-06T13:24:43;4.38;;;1.40;;
43823;SDS011;29470;53.550;9.926;2023-01-06T13:30:05;6.07;;;1.20;;
43823;SDS011;29470;53.550;9.926;2023-01-06T13:35:28;5.43;;;1.30;;
43823;SDS011;29470;53.550;9.926;2023-01-06T13:40:43;4.13;;;1.45;;
43823;SDS011;29470;53.550;9.926;2023-01-06T13:45:49;6.75;;;1.40;;
43823;SDS011;29470;53.550;9.926;2023-01-06T13:51:00;5.60;;;1.73;;
43823;SDS011;29470;53.550;9.926;2023-01-06T14:15:20;4.05;;;1.17;;
43823;SDS011;29470;53.550;9.926;2023-01-06T14:20:28;2.75;;;1.00;;
43823;SDS011;29470;53.550;9.926;2023-01-06T14:25:37;7.22;;;1.10;;
43823;SDS011;29470;53.550;9.926;2023-01-06T14:30:44;6.00;;;1.20;;
43823;SDS011;29470;53.550;9.926;2023-01-06T14:35:48;5.13;;;1.40;;
43823;SDS011;29470;53.550;9.926;2023-01-06T14:41:01;3.72;;;1.13;;
43823;SDS011;29470;53.550;9.926;2023-01-06T14:46:08;7.22;;;1.40;;
43823;SDS011;29470;53.550;9.926;2023-01-06T14:51:22;7.25;;;1.50;;
43823;SDS011;29470;53.550;9.926;2023-01-06T14:56:26;7.25;;;1.23;;
43823;SDS011;29470;53.550;9.926;2023-01-06T15:01:34;5.93;;;1.20;;
43823;SDS011;29470;53.550;9.926;2023-01-06T15:06:40;4.65;;;0.82;;
43823;SDS011;29470;53.550;9.926;2023-01-06T15:11:56;6.93;;;1.27;;
43823;SDS011;29470;53.550;9.926;2023-01-06T15:17:02;6.05;;;1.30;;
43823;SDS011;29470;53.550;9.926;2023-01-06T15:22:07;3.90;;;1.23;;
43823;SDS011;29470;53.550;9.926;2023-01-06T15:27:12;7.68;;;1.48;;
43823;SDS011;29470;53.550;9.926;2023-01-06T15:32:18;5.63;;;1.02;;
43823;SDS011;29470;53.550;9.926;2023-01-06T15:37:23;5.65;;;1.30;;
43823;SDS011;29470;53.550;9.926;2023-01-06T15:42:28;8.90;;;2.30;;
43823;SDS011;29470;53.550;9.926;2023-01-06T15:47:42;10.05;;;4.20;;
43823;SDS011;29470;53.550;9.926;2023-01-06T15:52:52;8.35;;;1.73;;
43823;SDS011;29470;53.550;9.926;2023-01-06T15:57:58;7.82;;;2.17;;
43823;SDS011;29470;53.550;9.926;2023-01-06T16:03:04;8.40;;;2.30;;
43823;SDS011;29470;53.550;9.926;2023-01-06T16:08:17;8.98;;;1.90;;
43823;SDS011;29470;53.550;9.926;2023-01-06T16:13:25;7.70;;;1.90;;
43823;SDS011;29470;53.550;9.926;2023-01-06T16:18:31;10.68;;;2.15;;
43823;SDS011;29470;53.550;9.926;2023-01-06T16:23:38;11.63;;;2.03;;
43823;SDS011;29470;53.550;9.926;2023-01-06T16:42:22;11.80;;;3.47;;
43823;SDS011;29470;53.550;9.926;2023-01-06T16:47:44;8.23;;;2.53;;
43823;SDS011;29470;53.550;9.926;2023-01-06T16:52:49;10.18;;;3.83;;
43823;SDS011;29470;53.550;9.926;2023-01-06T16:57:57;12.02;;;3.17;;
43823;SDS011;29470;53.550;9.926;2023-01-06T17:03:01;10.18;;;2.78;;
43823;SDS011;29470;53.550;9.926;2023-01-06T17:08:15;11.90;;;5.50;;
43823;SDS011;29470;53.550;9.926;2023-01-06T17:13:24;15.88;;;7.05;;
43823;SDS011;29470;53.550;9.926;2023-01-06T17:18:42;12.13;;;5.28;;
43823;SDS011;29470;53.550;9.926;2023-01-06T17:23:53;13.13;;;3.67;;
43823;SDS011;29470;53.550;9.926;2023-01-06T17:29:00;8.43;;;2.85;;
43823;SDS011;29470;53.550;9.926;2023-01-06T17:34:08;18.50;;;4.10;;
43823;SDS011;29470;53.550;9.926;2023-01-06T17:39:18;14.35;;;6.63;;
43823;SDS011;29470;53.550;9.926;2023-01-06T17:44:28;13.43;;;6.22;;
43823;SDS011;29470;53.550;9.926;2023-01-06T17:49:56;32.00;;;15.70;;
43823;SDS011;29470;53.550;9.926;2023-01-06T17:55:10;11.48;;;4.60;;
43823;SDS011;29470;53.550;9.926;2023-01-06T18:00:50;13.23;;;4.72;;
43823;SDS011;29470;53.550;9.926;2023-01-06T18:05:56;10.02;;;3.22;;
43823;SDS011;29470;53.550;9.926;2023-01-06T18:11:27;15.27;;;5.07;;
43823;SDS011;29470;53.550;9.926;2023-01-06T18:16:37;12.95;;;4.10;;
43823;SDS011;29470;53.550;9.926;2023-01-06T18:21:57;16.60;;;6.30;;
43823;SDS011;29470;53.550;9.926;2023-01-06T18:27:08;28.90;;;8.82;;
43823;SDS011;29470;53.550;9.926;2023-01-06T18:32:24;25.83;;;12.50;;
43823;SDS011;29470;53.550;9.926;2023-01-06T18:37:36;14.80;;;6.13;;
43823;SDS011;29470;53.550;9.926;2023-01-06T18:42:42;13.10;;;4.35;;
43823;SDS011;29470;53.550;9.926;2023-01-06T18:54:01;11.25;;;4.15;;
43823;SDS011;29470;53.550;9.926;2023-01-06T18:59:25;19.48;;;8.25;;
43823;SDS011;29470;53.550;9.926;2023-01-06T19:04:38;11.05;;;3.40;;
43823;SDS011;29470;53.550;9.926;2023-01-06T19:09:43;15.77;;;6.53;;
43823;SDS011;29470;53.550;9.926;2023-01-06T19:14:56;19.33;;;6.63;;
43823;SDS011;29470;53.550;9.926;2023-01-06T19:20:19;11.00;;;3.45;;
43823;SDS011;29470;53.550;9.926;2023-01-06T19:25:32;14.10;;;5.10;;
43823;SDS011;29470;53.550;9.926;2023-01-06T19:30:55;11.13;;;3.83;;
43823;SDS011;29470;53.550;9.926;2023-01-06T19:36:07;18.10;;;7.10;;
43823;SDS011;29470;53.550;9.926;2023-01-06T19:41:39;14.27;;;4.70;;
43823;SDS011;29470;53.550;9.926;2023-01-06T19:47:31;14.80;;;4.30;;
43823;SDS011;29470;53.550;9.926;2023-01-06T19:52:42;13.27;;;5.07;;
43823;SDS011;29470;53.550;9.926;2023-01-06T19:57:49;7.93;;;3.00;;
43823;SDS011;29470;53.550;9.926;2023-01-06T20:03:04;18.77;;;5.15;;
43823;SDS011;29470;53.550;9.926;2023-01-06T20:08:33;19.35;;;6.88;;
43823;SDS011;29470;53.550;9.926;2023-01-06T20:13:45;19.17;;;7.55;;
43823;SDS011;29470;53.550;9.926;2023-01-06T20:18:59;23.38;;;8.20;;
43823;SDS011;29470;53.550;9.926;2023-01-06T20:24:09;10.35;;;3.88;;
43823;SDS011;29470;53.550;9.926;2023-01-06T20:29:17;11.40;;;4.57;;
43823;SDS011;29470;53.550;9.926;2023-01-06T20:34:35;19.55;;;7.45;;
43823;SDS011;29470;53.550;9.926;2023-01-06T20:39:41;19.67;;;7.70;;
43823;SDS011;29470;53.550;9.926;2023-01-06T20:44:44;12.82;;;3.75;;
43823;SDS011;29470;53.550;9.926;2023-01-06T20:49:48;12.45;;;4.15;;
43823;SDS011;29470;53.550;9.926;2023-01-06T20:54:54;11.70;;;4.90;;
43823;SDS011;29470;53.550;9.926;2023-01-06T20:59:58;9.57;;;3.30;;
43823;SDS011;29470;53.550;9.926;2023-01-06T21:05:01;11.15;;;3.60;;
43823;SDS011;29470;53.550;9.926;2023-01-06T21:10:06;8.88;;;3.58;;
43823;SDS011;29470;53.550;9.926;2023-01-06T21:15:10;13.90;;;6.10;;
43823;SDS011;29470;53.550;9.926;2023-01-06T21:20:14;12.13;;;4.68;;
43823;SDS011;29470;53.550;9.926;2023-01-06T21:25:18;18.23;;;8.93;;
43823;SDS011;29470;53.550;9.926;2023-01-06T21:30:21;15.63;;;4.55;;
43823;SDS011;29470;53.550;9.926;2023-01-06T21:35:27;10.60;;;4.25;;
43823;SDS011;29470;53.550;9.926;2023-01-06T21:40:31;10.45;;;3.53;;
43823;SDS011;29470;53.550;9.926;2023-01-06T21:45:36;8.65;;;3.47;;
43823;SDS011;29470;53.550;9.926;2023-01-06T21:50:41;14.82;;;4.93;;
43823;SDS011;29470;53.550;9.926;2023-01-06T21:55:47;11.43;;;4.25;;
43823;SDS011;29470;53.550;9.926;2023-01-06T22:00:50;11.73;;;3.97;;
43823;SDS011;29470;53.550;9.926;2023-01-06T22:05:53;8.43;;;3.17;;
43823;SDS011;29470;53.550;9.926;2023-01-06T22:10:58;15.52;;;6.20;;
43823;SDS011;29470;53.550;9.926;2023-01-06T22:16:01;12.55;;;4.78;;
43823;SDS011;29470;53.550;9.926;2023-01-06T22:21:04;12.88;;;4.55;;
43823;SDS011;29470;53.550;9.926;2023-01-06T22:26:09;14.98;;;5.20;;
43823;SDS011;29470;53.550;9.926;2023-01-06T22:31:14;9.85;;;4.38;;
43823;SDS011;29470;53.550;9.926;2023-01-06T22:36:17;12.55;;;5.47;;
43823;SDS011;29470;53.550;9.926;2023-01-06T22:41:21;8.00;;;4.13;;
43823;SDS011;29470;53.550;9.926;2023-01-06T22:46:24;8.40;;;3.47;;
43823;SDS011;29470;53.550;9.926;2023-01-06T22:51:28;8.38;;;4.10;;
43823;SDS011;29470;53.550;9.926;2023-01-06T22:56:33;8.43;;;3.63;;
43823;SDS011;29470;53.550;9.926;2023-01-06T23:01:36;22.67;;;9.05;;
43823;SDS011;29470;53.550;9.926;2023-01-06T23:06:39;13.80;;;4.78;;
43823;SDS011;29470;53.550;9.926;2023-01-06T23:11:44;18.13;;;6.53;;
43823;SDS011;29470;53.550;9.926;2023-01-06T23:16:46;10.50;;;6.30;;
43823;SDS011;29470;53.550;9.926;2023-01-06T23:21:49;9.75;;;3.85;;
43823;SDS011;29470;53.550;9.926;2023-01-06T23:26:53;8.73;;;3.50;;
43823;SDS011;29470;53.550;9.926;2023-01-06T23:31:56;18.67;;;8.88;;
43823;SDS011;29470;53.550;9.926;2023-01-06T23:36:59;11.27;;;3.90;;
43823;SDS011;29470;53.550;9.926;2023-01-06T23:42:03;11.00;;;4.63;;
43823;SDS011;29470;53.550;9.926;2023-01-06T23:47:07;9.73;;;4.97;;
43823;SDS011;29470;53.550;9.926;2023-01-06T23:52:10;10.05;;;4.57;;
43823;SDS011;29470;53.550;9.926;2023-01-06T23:57:14;10.10;;;4.88;;
